Terminal Aerodrome Forecast
Issued by NWS Sioux Falls, SD

Home | Current Version | Previous Version | Text Only | Print | Product List | Glossary Off
Versions: 1 2 3 4 5 6 7 8 9 10 11 12 13 14 15

000
FTUS43 KFSD 021150
TAFHON
TAF
KHON 021150Z 0212/0312 14008KT P6SM SCT035 OVC090
      TEMPO 0212/0215 6SM -SHRA BKN060
     FM021500 15007KT P6SM SCT025 OVC080
      TEMPO 0216/0218 5SM SHRA BKN025
     FM021900 16007KT P6SM BKN035
     FM030300 17006KT P6SM BKN150
     FM030700 11004KT P6SM SCT060
     FM030900 VRB03KT 4SM BR SCT060=

USA.gov is the U.S. government's official web portal to all federal, state and local government web resources and services.